Weather History for Big Bear City, CA

Change the Weather History Date:

Saturday, November 10, 2012

  Actual Average (KBUO) Record (KBUO)
Temperature  
Mean Temperature 23 °F -  
Max Temperature 32 °F 66 °F 80 °F (1996)
Min Temperature 12 °F 45 °F 35 °F (1998)
Degree Days  
Heating Degree Days 42    
Moisture  
Dew Point 16 °F    
Average Humidity 67    
Maximum Humidity 86    
Minimum Humidity 44    
Precipitation  
Precipitation 0.02 in - - ()
Sea Level Pressure  
Sea Level Pressure 29.93 in    
Wind  
Wind Speed 9 mph (WSW)    
Max Wind Speed 21 mph    
Max Gust Speed 31 mph    
Visibility 9 miles    
Events Snow    
Averages and records for this station are not official NWS values.
T = Trace of Precipitation, MM = Missing Value Source: NWS Daily Summary

Daily Weather History Graph

Daily Weather History Graph

Search for Another Location

Airport:

Trip Planner

Search our weather history database for the weather conditions in past years. The results will help you decide how hot, cold, wet, or windy it might be!

Date:

Astronomy

Nov. 10, 2012 Rise Set
Actual Time 6:16 AM PST 4:46 PM PST
Civil Twilight 5:49 AM PST 5:12 PM PST
Nautical Twilight 5:19 AM PST 5:42 PM PST
Astronomical Twilight 4:50 AM PST 6:12 PM PST
Moon 2:34 AM PST (11/10) 2:28 PM PST (11/10)
Length of Visible Light 11h 22m
Length of Day
10h 29m
Waning Crescent, 13% of the Moon is Illuminated
Nov 10
Waning Crescent
Nov 13
New
Nov 20
First Quarter
Nov 28
Full
Dec 6
Last Quarter

Hourly Weather History & Observations

Time (PST) Temp. Windchill Dew Point Humidity Pressure Visibility Wind Dir Wind Speed Gust Speed Precip Events Conditions
12:15 AM 26.6 °F 21.2 °F 23.0 °F 86% 29.83 in 0.8 mi WSW 4.6 mph - 0.02 in Snow Snow
12:35 AM 26.6 °F 16.8 °F 23.0 °F 86% 29.83 in 1.8 mi WSW 10.4 mph 16.1 mph 0.02 in Snow Light Snow
12:55 AM 26.6 °F 19.1 °F 21.2 °F 80% 29.83 in 7.0 mi SW 6.9 mph - 0.02 in   Scattered Clouds
1:15 AM 26.6 °F 18.2 °F 21.2 °F 80% 29.83 in 1.5 mi WSW 8.1 mph - N/A Snow Light Snow
1:35 AM 26.6 °F 20.0 °F 23.0 °F 86% 29.83 in 3.0 mi SW 5.8 mph - N/A Snow Light Snow
1:55 AM 26.6 °F 17.5 °F 21.2 °F 80% 29.83 in 5.0 mi WSW 9.2 mph 18.4 mph N/A   Haze
2:15 AM 26.6 °F 17.5 °F 19.4 °F 74% 29.83 in 10.0 mi WSW 9.2 mph - N/A   Clear
2:35 AM 26.6 °F 17.5 °F 21.2 °F 80% 29.84 in 1.5 mi WSW 9.2 mph - N/A Snow Light Snow
2:55 AM 26.6 °F 22.6 °F 21.2 °F 80% 29.83 in 7.0 mi SW 3.5 mph - N/A   Overcast
3:15 AM 26.6 °F 16.8 °F 19.4 °F 74% 29.83 in 7.0 mi WSW 10.4 mph 16.1 mph N/A   Mostly Cloudy
3:35 AM 26.6 °F 18.2 °F 19.4 °F 74% 29.83 in 5.0 mi WSW 8.1 mph - N/A Snow Light Snow
3:55 AM 26.6 °F 19.1 °F 21.2 °F 80% 29.83 in 3.0 mi WSW 6.9 mph 16.1 mph N/A Snow Light Snow
4:15 AM 26.6 °F 21.2 °F 19.4 °F 74% 29.83 in 10.0 mi SW 4.6 mph - N/A   Scattered Clouds
4:35 AM 24.8 °F 16.9 °F 19.4 °F 80% 29.84 in 10.0 mi WSW 6.9 mph - N/A   Scattered Clouds
4:55 AM 24.8 °F 16.9 °F 19.4 °F 80% 29.85 in 10.0 mi WSW 6.9 mph - N/A   Scattered Clouds
5:15 AM 24.8 °F 15.3 °F 19.4 °F 80% 29.85 in 10.0 mi SW 9.2 mph - N/A   Scattered Clouds
5:35 AM 24.8 °F 16.1 °F 19.4 °F 80% 29.86 in 10.0 mi WSW 8.1 mph - N/A   Scattered Clouds
5:55 AM 24.8 °F 16.9 °F 17.6 °F 74% 29.86 in 10.0 mi WSW 6.9 mph - N/A   Clear
6:15 AM 24.8 °F 16.9 °F 19.4 °F 80% 29.86 in 10.0 mi WSW 6.9 mph - N/A   Scattered Clouds
6:35 AM 26.6 °F 16.2 °F 19.4 °F 74% 29.87 in 3.0 mi West 11.5 mph 17.3 mph N/A   Haze
6:55 AM 26.6 °F 19.1 °F 19.4 °F 74% 29.88 in 7.0 mi WSW 6.9 mph - N/A   Overcast
7:35 AM 26.6 °F 17.5 °F 19.4 °F 74% 29.90 in 7.0 mi West 9.2 mph - N/A   Mostly Cloudy
7:55 AM 26.6 °F 21.2 °F 19.4 °F 74% 29.90 in 10.0 mi SW 4.6 mph - N/A   Mostly Cloudy
8:15 AM 28.4 °F 17.0 °F 17.6 °F 64% 29.92 in 10.0 mi WNW 15.0 mph 21.9 mph N/A   Mostly Cloudy
8:35 AM 26.6 °F 15.2 °F 17.6 °F 69% 29.92 in 10.0 mi WNW 13.8 mph 18.4 mph N/A   Overcast
8:55 AM 24.8 °F 14.0 °F 17.6 °F 74% 29.93 in 10.0 mi West 11.5 mph - N/A   Mostly Cloudy
9:15 AM 26.6 °F 19.1 °F 19.4 °F 74% 29.94 in 10.0 mi West 6.9 mph - N/A   Mostly Cloudy
9:35 AM 28.4 °F 19.7 °F 17.6 °F 64% 29.94 in 10.0 mi West 9.2 mph 17.3 mph N/A   Overcast
9:55 AM 28.4 °F 19.7 °F 15.8 °F 59% 29.94 in 10.0 mi WSW 9.2 mph 23.0 mph N/A   Mostly Cloudy
10:15 AM 30.2 °F 20.8 °F 14.0 °F 51% 29.94 in 10.0 mi West 11.5 mph 23.0 mph N/A   Scattered Clouds
10:35 AM 30.2 °F 19.3 °F 12.2 °F 47% 29.95 in 10.0 mi WSW 15.0 mph 26.5 mph N/A   Clear
10:55 AM 30.2 °F 19.8 °F 15.8 °F 55% 29.94 in 10.0 mi West 13.8 mph 27.6 mph N/A   Clear
11:15 AM 30.2 °F 20.8 °F 14.0 °F 51% 29.94 in 10.0 mi WSW 11.5 mph 23.0 mph N/A   Scattered Clouds
11:35 AM 30.2 °F 18.5 °F 15.8 °F 55% 29.94 in 10.0 mi West 17.3 mph 20.7 mph N/A   Scattered Clouds
11:55 AM 30.2 °F 18.9 °F 14.0 °F 51% 29.94 in 10.0 mi West 16.1 mph 26.5 mph N/A   Mostly Cloudy
12:15 PM 30.2 °F 18.1 °F 15.8 °F 55% 29.93 in 10.0 mi West 18.4 mph 23.0 mph N/A   Mostly Cloudy
12:35 PM 30.2 °F 17.8 °F 14.0 °F 51% 29.93 in 10.0 mi West 19.6 mph 25.3 mph N/A   Scattered Clouds
12:55 PM 30.2 °F 19.3 °F 15.8 °F 55% 29.92 in 10.0 mi WSW 15.0 mph 26.5 mph N/A   Scattered Clouds
1:15 PM 30.2 °F 18.5 °F 14.0 °F 51% 29.93 in 10.0 mi West 17.3 mph 27.6 mph N/A   Scattered Clouds
1:35 PM 30.2 °F 19.3 °F 12.2 °F 47% 29.93 in 10.0 mi West 15.0 mph 27.6 mph N/A   Clear
1:55 PM 32.0 °F 19.8 °F 12.2 °F 44% 29.93 in 10.0 mi West 20.7 mph 31.1 mph N/A   Clear
2:15 PM 30.2 °F 17.8 °F 12.2 °F 47% 29.93 in 10.0 mi West 19.6 mph 25.3 mph N/A   Clear
2:35 PM 30.2 °F 18.5 °F 14.0 °F 51% 29.93 in 10.0 mi West 17.3 mph 25.3 mph N/A   Clear
2:55 PM 30.2 °F 17.8 °F 12.2 °F 47% 29.94 in 10.0 mi West 19.6 mph 29.9 mph N/A   Clear
3:15 PM 30.2 °F 19.3 °F 14.0 °F 51% 29.94 in 10.0 mi West 15.0 mph 27.6 mph N/A   Clear
3:35 PM 28.4 °F 16.6 °F 14.0 °F 55% 29.94 in 10.0 mi West 16.1 mph 24.2 mph N/A   Clear
3:55 PM 28.4 °F 16.2 °F 14.0 °F 55% 29.95 in 10.0 mi West 17.3 mph 26.5 mph N/A   Clear
4:15 PM 28.4 °F 16.6 °F 17.6 °F 64% 29.95 in 10.0 mi West 16.1 mph 21.9 mph N/A   Clear
4:35 PM 26.6 °F 14.3 °F 14.0 °F 59% 29.95 in 10.0 mi West 16.1 mph 26.5 mph N/A   Clear
4:55 PM 26.6 °F 13.4 °F 14.0 °F 59% 29.95 in 10.0 mi West 18.4 mph 25.3 mph N/A   Clear
5:15 PM 26.6 °F 15.2 °F 14.0 °F 59% 29.95 in 10.0 mi WSW 13.8 mph 26.5 mph N/A   Clear
5:35 PM 24.8 °F 13.4 °F 15.8 °F 69% 29.96 in 10.0 mi West 12.7 mph 20.7 mph N/A   Clear
5:55 PM 24.8 °F 13.4 °F 14.0 °F 64% 29.96 in 10.0 mi WSW 12.7 mph 18.4 mph N/A   Clear
6:15 PM 23.0 °F 11.1 °F 15.8 °F 74% 29.98 in 10.0 mi West 12.7 mph 17.3 mph N/A   Clear
6:35 PM 23.0 °F 15.8 °F 14.0 °F 68% 30.00 in 10.0 mi West 5.8 mph - N/A   Clear
6:55 PM 23.0 °F 14.7 °F 10.4 °F 59% 30.00 in 10.0 mi WSW 6.9 mph - N/A   Clear
7:35 PM 23.0 °F 13.9 °F 10.4 °F 59% 30.01 in 10.0 mi WSW 8.1 mph 19.6 mph N/A   Clear
8:15 PM 21.2 °F 12.6 °F 10.4 °F 63% 30.03 in 10.0 mi South 6.9 mph - N/A   Clear
8:35 PM 21.2 °F 10.9 °F 10.4 °F 63% 30.04 in 10.0 mi SW 9.2 mph - N/A   Clear
8:55 PM 23.0 °F 13.9 °F 10.4 °F 59% 30.04 in 10.0 mi WSW 8.1 mph - N/A   Clear
9:15 PM 23.0 °F - 10.4 °F 59% 30.06 in 10.0 mi Calm Calm - N/A   Clear
9:35 PM 21.2 °F - 10.4 °F 63% 30.06 in 10.0 mi Calm Calm - N/A   Clear
9:55 PM 19.4 °F - 10.4 °F 68% 30.06 in 10.0 mi Calm Calm - N/A   Clear
10:15 PM 19.4 °F - 10.4 °F 68% 30.06 in 10.0 mi Calm Calm - N/A   Clear
10:35 PM 17.6 °F - 10.4 °F 73% 30.07 in 10.0 mi Calm Calm - N/A   Clear
10:55 PM 15.8 °F - 10.4 °F 79% 30.07 in 10.0 mi Calm Calm - N/A   Clear
11:15 PM 14.0 °F - 8.6 °F 79% 30.08 in 10.0 mi Calm Calm - N/A   Clear
11:35 PM 14.0 °F - 8.6 °F 79% 30.08 in 10.0 mi Calm Calm - N/A   Clear
11:55 PM 12.2 °F - 8.6 °F 85% 30.08 in 10.0 mi Calm Calm - N/A   Clear